createdAt,value
2023-01-19T00:00:18.338Z,-7.00
2023-01-19T00:03:17.959Z,-6.80
2023-01-19T00:06:14.819Z,-6.90
2023-01-19T00:09:11.600Z,-6.90
2023-01-19T00:12:09.159Z,-7.00
2023-01-19T00:15:06.506Z,-7.00
2023-01-19T00:18:03.404Z,-6.70
2023-01-19T00:21:00.212Z,-6.70
2023-01-19T00:23:57.029Z,-7.00
2023-01-19T00:26:53.838Z,-7.10
2023-01-19T00:29:50.575Z,-7.20
2023-01-19T00:32:47.328Z,-7.20
2023-01-19T00:35:44.328Z,-7.10
2023-01-19T00:38:41.058Z,-7.10
2023-01-19T00:41:56.396Z,-7.10
2023-01-19T00:44:53.137Z,-6.90
2023-01-19T00:47:56.993Z,-7.10
2023-01-19T00:50:53.799Z,-7.20
2023-01-19T00:53:50.645Z,-7.10
2023-01-19T00:56:47.392Z,-7.10
2023-01-19T00:59:44.168Z,-7.10
2023-01-19T01:02:42.272Z,-7.00
2023-01-19T01:05:41.325Z,-7.20
2023-01-19T01:08:38.179Z,-7.20
2023-01-19T01:11:34.925Z,-7.40
2023-01-19T01:14:31.666Z,-7.40
2023-01-19T01:17:28.426Z,-7.30
2023-01-19T01:20:28.033Z,-7.20
2023-01-19T01:23:24.958Z,-7.10
2023-01-19T01:26:21.879Z,-7.00
2023-01-19T01:29:18.642Z,-7.00
2023-01-19T01:32:15.818Z,-7.00
2023-01-19T01:35:13.503Z,-7.30
2023-01-19T01:38:10.333Z,-7.30
2023-01-19T01:41:07.853Z,-7.50
2023-01-19T01:44:49.472Z,-7.40
2023-01-19T01:47:48.603Z,-7.40
2023-01-19T01:51:11.028Z,-7.40
2023-01-19T01:54:17.245Z,-7.30
2023-01-19T01:57:14.271Z,-7.30
2023-01-19T02:00:11.322Z,-7.40
2023-01-19T02:03:08.091Z,-7.40
2023-01-19T02:06:07.181Z,-7.20
2023-01-19T02:09:27.244Z,-7.30
2023-01-19T02:12:42.601Z,-7.40
2023-01-19T02:15:39.344Z,-7.40
2023-01-19T02:18:36.497Z,-7.30
2023-01-19T02:21:45.165Z,-7.20
2023-01-19T02:24:42.750Z,-7.30
2023-01-19T02:27:39.573Z,-7.20
2023-01-19T02:30:37.221Z,-7.10
2023-01-19T02:33:34.054Z,-7.10
2023-01-19T02:36:42.212Z,-7.00
2023-01-19T02:40:04.464Z,-7.00
2023-01-19T02:43:03.345Z,-7.00
2023-01-19T02:46:00.352Z,-6.90
2023-01-19T02:49:00.524Z,-7.00
2023-01-19T02:51:58.561Z,-6.80
2023-01-19T02:55:19.840Z,-6.70
2023-01-19T02:58:26.950Z,-6.70
2023-01-19T03:01:34.298Z,-6.70
2023-01-19T03:04:44.974Z,-6.80
2023-01-19T03:08:06.435Z,-6.80
2023-01-19T03:11:09.278Z,-6.70
2023-01-19T03:14:10.997Z,-6.70
2023-01-19T03:17:09.658Z,-6.70
2023-01-19T03:20:07.834Z,-6.70
2023-01-19T03:23:08.235Z,-6.50
2023-01-19T03:26:08.451Z,-6.50
2023-01-19T03:29:06.903Z,-6.50
2023-01-19T03:32:07.352Z,-6.60
2023-01-19T03:35:09.370Z,-6.60
2023-01-19T03:38:11.944Z,-6.50
2023-01-19T03:41:13.224Z,-6.40
2023-01-19T03:44:11.663Z,-6.40
2023-01-19T03:47:09.848Z,-6.40
2023-01-19T03:50:09.142Z,-6.30
2023-01-19T03:53:14.469Z,-6.30
2023-01-19T03:56:22.728Z,-6.30
2023-01-19T03:59:20.051Z,-6.30
2023-01-19T04:02:16.977Z,-6.20
2023-01-19T04:05:14.470Z,-6.20
2023-01-19T04:08:11.948Z,-6.10
2023-01-19T04:11:08.844Z,-6.20
2023-01-19T04:14:05.616Z,-6.20
2023-01-19T04:17:02.386Z,-6.20
2023-01-19T04:20:00.331Z,-6.20
2023-01-19T04:23:01.653Z,-6.20
2023-01-19T04:25:59.622Z,-6.20
2023-01-19T04:28:56.502Z,-6.10
2023-01-19T04:31:53.342Z,-6.00
2023-01-19T04:34:50.458Z,-5.90
2023-01-19T04:37:47.347Z,-5.80
2023-01-19T04:40:44.146Z,-5.70
2023-01-19T04:43:40.942Z,-5.70
2023-01-19T04:46:37.796Z,-5.70
2023-01-19T04:49:37.599Z,-5.60
2023-01-19T04:52:35.193Z,-5.50
2023-01-19T04:55:31.951Z,-5.40
2023-01-19T04:58:28.717Z,-5.30
2023-01-19T05:01:25.636Z,-5.20
2023-01-19T05:04:22.462Z,-5.10
2023-01-19T05:07:19.266Z,-5.00
2023-01-19T05:10:16.293Z,-4.90
2023-01-19T05:13:14.088Z,-4.90
2023-01-19T05:16:11.120Z,-4.80
2023-01-19T05:19:08.008Z,-4.70
2023-01-19T05:22:05.630Z,-4.70
2023-01-19T05:25:02.386Z,-4.60
2023-01-19T05:27:59.154Z,-4.60
2023-01-19T05:30:56.007Z,-4.50
2023-01-19T05:33:52.860Z,-4.50
2023-01-19T05:36:49.731Z,-4.50
2023-01-19T05:39:46.483Z,-4.40
2023-01-19T05:42:43.255Z,-4.40
2023-01-19T05:45:41.073Z,-4.30
2023-01-19T05:48:38.400Z,-4.30
2023-01-19T05:51:38.414Z,-4.20
2023-01-19T05:54:35.168Z,-4.20
2023-01-19T05:57:31.937Z,-4.20
2023-01-19T06:00:29.123Z,-4.00
2023-01-19T06:03:26.009Z,-3.90
2023-01-19T06:06:22.845Z,-4.00
2023-01-19T06:09:19.601Z,-4.00
2023-01-19T06:12:16.377Z,-4.00
2023-01-19T06:15:14.440Z,-4.00
2023-01-19T06:18:12.592Z,-3.90
2023-01-19T06:21:12.309Z,-3.90
2023-01-19T06:24:09.971Z,-3.90
2023-01-19T06:27:06.890Z,-3.90
2023-01-19T06:30:04.601Z,-3.80
2023-01-19T06:33:01.764Z,-3.80
2023-01-19T06:35:58.815Z,-3.70
2023-01-19T06:38:55.573Z,-3.70
2023-01-19T06:41:52.345Z,-3.70
2023-01-19T06:44:49.284Z,-3.60
2023-01-19T06:47:47.828Z,-3.60
2023-01-19T06:50:45.679Z,-3.70
2023-01-19T06:53:42.446Z,-3.60
2023-01-19T06:56:39.222Z,-3.60
2023-01-19T06:59:36.026Z,-3.60
2023-01-19T07:02:32.919Z,-3.60
2023-01-19T07:05:29.836Z,-3.60
2023-01-19T07:08:27.020Z,-3.60
2023-01-19T07:11:31.466Z,-3.50
2023-01-19T07:14:33.504Z,-3.60
2023-01-19T07:17:30.389Z,-3.50
2023-01-19T07:20:27.149Z,-3.50
2023-01-19T07:23:24.063Z,-3.50
2023-01-19T07:26:21.751Z,-3.50
2023-01-19T07:29:18.739Z,-3.50
2023-01-19T07:32:15.495Z,-3.40
2023-01-19T07:35:12.287Z,-3.40
2023-01-19T07:38:09.198Z,-3.40
2023-01-19T07:41:07.732Z,-3.40
2023-01-19T07:44:04.682Z,-3.40
2023-01-19T07:47:01.442Z,-3.40
2023-01-19T07:49:58.230Z,-3.30
2023-01-19T07:52:55.934Z,-3.20
2023-01-19T07:55:56.699Z,-3.20
2023-01-19T07:58:53.625Z,-3.30
2023-01-19T08:01:50.511Z,-3.20
2023-01-19T08:04:48.185Z,-3.10
2023-01-19T08:07:46.254Z,-3.10
2023-01-19T08:10:43.035Z,-3.10
2023-01-19T08:13:39.801Z,-3.10
2023-01-19T08:16:36.988Z,-3.10
2023-01-19T08:19:33.760Z,-3.10
2023-01-19T08:22:30.556Z,-3.00
2023-01-19T08:25:33.082Z,-3.00
2023-01-19T08:28:32.133Z,-3.00
2023-01-19T08:31:29.245Z,-3.00
2023-01-19T08:34:26.137Z,-3.00
2023-01-19T08:37:22.885Z,-3.00
2023-01-19T08:40:20.240Z,-3.00
2023-01-19T08:43:17.588Z,-3.00
2023-01-19T08:46:18.530Z,-3.00
2023-01-19T08:49:15.833Z,-2.90
2023-01-19T08:52:12.619Z,-2.90
2023-01-19T08:55:11.206Z,-2.90
2023-01-19T08:58:11.060Z,-2.80
2023-01-19T09:01:08.883Z,-2.80
2023-01-19T09:04:06.196Z,-2.80
2023-01-19T09:07:03.065Z,-2.80
2023-01-19T09:09:59.853Z,-2.80
2023-01-19T09:12:57.165Z,-2.70
2023-01-19T09:15:54.286Z,-2.70
2023-01-19T09:18:51.100Z,-2.70
2023-01-19T09:21:47.845Z,-2.70
2023-01-19T09:24:44.636Z,-2.70
2023-01-19T09:27:41.401Z,-2.70
2023-01-19T09:30:39.811Z,-2.60
2023-01-19T09:33:36.577Z,-2.50
2023-01-19T09:36:33.328Z,-2.50
2023-01-19T09:39:30.073Z,-2.40
2023-01-19T09:42:46.201Z,-2.40
2023-01-19T09:45:48.629Z,-2.40
2023-01-19T09:48:52.973Z,-2.30
2023-01-19T09:51:50.934Z,-2.30
2023-01-19T09:54:53.581Z,-2.30
2023-01-19T09:57:50.342Z,-2.20
2023-01-19T10:00:52.728Z,-2.20
2023-01-19T10:03:53.541Z,-2.10
2023-01-19T10:06:52.492Z,-2.20
2023-01-19T10:10:04.566Z,-2.20
2023-01-19T10:13:11.556Z,-2.10
2023-01-19T10:16:34.822Z,-2.20
2023-01-19T10:19:40.363Z,-2.20
2023-01-19T10:22:37.550Z,-2.20
2023-01-19T10:25:34.456Z,-2.10
2023-01-19T10:28:31.873Z,-2.00
2023-01-19T10:31:28.889Z,-2.00
2023-01-19T10:34:25.793Z,-1.90
2023-01-19T10:37:37.757Z,-1.80
2023-01-19T10:40:39.847Z,-1.70
2023-01-19T10:43:45.050Z,-1.60
2023-01-19T10:46:47.182Z,-1.50
2023-01-19T10:49:44.908Z,-1.60
2023-01-19T10:52:44.705Z,-1.50
2023-01-19T10:55:41.581Z,-1.60
2023-01-19T10:58:40.336Z,-1.50
2023-01-19T11:01:38.084Z,-1.40
2023-01-19T11:04:35.004Z,-1.30
2023-01-19T11:07:33.605Z,-1.40
2023-01-19T11:10:30.440Z,-1.30
2023-01-19T11:13:27.218Z,-1.40
2023-01-19T11:16:31.214Z,-1.50
2023-01-19T11:19:31.136Z,-1.50
2023-01-19T11:22:34.328Z,-1.50
2023-01-19T11:25:33.394Z,-1.50
2023-01-19T11:28:42.016Z,-1.40
2023-01-19T11:31:40.427Z,-1.40
2023-01-19T11:34:38.690Z,-1.50
2023-01-19T11:37:35.815Z,-1.50
2023-01-19T11:40:33.745Z,-1.50
2023-01-19T11:43:43.492Z,-1.50
2023-01-19T11:46:48.560Z,-1.40
2023-01-19T11:50:04.918Z,-1.40
2023-01-19T11:53:15.091Z,-1.40
2023-01-19T11:56:14.043Z,-1.30
2023-01-19T11:59:12.456Z,-1.30
2023-01-19T12:02:28.367Z,-1.20
2023-01-19T12:05:27.177Z,-1.30
2023-01-19T12:08:50.053Z,-1.30
2023-01-19T12:12:01.615Z,-1.30
2023-01-19T12:15:06.330Z,-1.20
2023-01-19T12:18:05.833Z,-1.10
2023-01-19T12:21:04.211Z,-1.10
2023-01-19T12:24:16.408Z,-1.20
2023-01-19T12:27:39.718Z,-1.20
2023-01-19T12:30:36.583Z,-1.20
2023-01-19T12:33:36.811Z,-1.20
2023-01-19T12:36:36.811Z,-1.20
2023-01-19T12:39:35.384Z,-1.20
2023-01-19T12:42:33.503Z,-1.10
2023-01-19T12:45:34.057Z,-1.20
2023-01-19T12:48:32.132Z,-1.10
2023-01-19T12:51:30.946Z,-1.20
2023-01-19T12:54:34.250Z,-1.20
2023-01-19T12:57:48.550Z,-1.10
2023-01-19T13:00:46.932Z,-1.10
2023-01-19T13:03:46.009Z,-1.10
2023-01-19T13:06:48.663Z,-1.20
2023-01-19T13:09:45.505Z,-1.20
2023-01-19T13:13:18.204Z,-1.10
2023-01-19T13:16:18.136Z,-1.10
2023-01-19T13:19:18.195Z,-1.10
2023-01-19T13:22:54.077Z,-1.00
2023-01-19T13:26:12.721Z,-1.00
2023-01-19T13:29:28.323Z,-0.90
2023-01-19T13:32:25.688Z,-0.90
2023-01-19T13:35:22.647Z,-0.90
2023-01-19T13:38:19.845Z,-0.90
2023-01-19T13:41:18.753Z,-0.90
2023-01-19T13:44:32.689Z,-0.90
2023-01-19T13:47:48.980Z,-0.80
2023-01-19T13:51:17.702Z,-0.80
2023-01-19T13:54:15.971Z,-0.90
2023-01-19T13:57:31.555Z,-0.90
2023-01-19T14:00:30.946Z,-0.90
2023-01-19T14:03:27.889Z,-0.80
2023-01-19T14:06:36.383Z,-0.80
2023-01-19T14:09:33.204Z,-0.80
2023-01-19T14:12:30.104Z,-0.80
2023-01-19T14:15:28.552Z,-0.80
2023-01-19T14:18:30.738Z,-0.80
2023-01-19T14:21:38.130Z,-0.90
2023-01-19T14:24:34.908Z,-0.90
2023-01-19T14:27:31.677Z,-0.90
2023-01-19T14:30:28.542Z,-0.90
2023-01-19T14:33:34.717Z,-0.90
2023-01-19T14:36:38.098Z,-1.00
2023-01-19T14:39:35.820Z,-1.00
2023-01-19T14:42:35.808Z,-0.90
2023-01-19T14:45:36.976Z,-0.90
2023-01-19T14:48:33.785Z,-0.90
2023-01-19T14:51:31.160Z,-0.80
2023-01-19T14:54:38.327Z,-0.80
2023-01-19T14:57:36.445Z,-0.80
2023-01-19T15:00:33.216Z,-0.80
2023-01-19T15:03:43.522Z,-0.80
2023-01-19T15:06:45.805Z,-0.80
2023-01-19T15:09:42.562Z,-0.80
2023-01-19T15:12:39.329Z,-0.80
2023-01-19T15:15:36.563Z,-0.80
2023-01-19T15:18:33.324Z,-0.80
2023-01-19T15:21:30.104Z,-0.80
2023-01-19T15:24:26.851Z,-0.80
2023-01-19T15:27:23.629Z,-0.80
2023-01-19T15:30:25.182Z,-0.80
2023-01-19T15:33:23.737Z,-0.80
2023-01-19T15:36:22.230Z,-0.80
2023-01-19T15:39:19.479Z,-0.80
2023-01-19T15:42:16.348Z,-0.70
2023-01-19T15:45:33.541Z,-0.70
2023-01-19T15:48:30.387Z,-0.70
2023-01-19T15:51:27.222Z,-0.80
2023-01-19T15:54:24.079Z,-0.70
2023-01-19T15:57:20.974Z,-0.70
2023-01-19T16:00:17.846Z,-0.70
2023-01-19T16:03:14.655Z,-0.70
2023-01-19T16:06:12.803Z,-0.70
2023-01-19T16:09:09.564Z,-0.70
2023-01-19T16:12:06.443Z,-0.70
2023-01-19T16:15:03.270Z,-0.80
2023-01-19T16:18:00.106Z,-0.70
2023-01-19T16:20:56.954Z,-0.70
2023-01-19T16:23:54.101Z,-0.70
2023-01-19T16:26:50.991Z,-0.80
2023-01-19T16:29:47.968Z,-0.70
2023-01-19T16:32:45.328Z,-0.80
2023-01-19T16:35:42.111Z,-0.70
2023-01-19T16:38:38.895Z,-0.80
2023-01-19T16:41:36.229Z,-0.80
2023-01-19T16:44:33.164Z,-0.70
2023-01-19T16:47:30.137Z,-0.80
2023-01-19T16:50:26.913Z,-0.80
2023-01-19T16:53:23.721Z,-0.80
2023-01-19T16:56:20.518Z,-0.70
2023-01-19T16:59:17.659Z,-0.70
2023-01-19T17:02:14.712Z,-0.70
2023-01-19T17:05:11.700Z,-0.70
2023-01-19T17:08:08.657Z,-0.70
2023-01-19T17:11:23.425Z,-0.70
2023-01-19T17:14:20.528Z,-0.70
2023-01-19T17:17:17.504Z,-0.70
2023-01-19T17:20:14.701Z,-0.60
2023-01-19T17:23:11.624Z,-0.60
2023-01-19T17:26:08.859Z,-0.70
2023-01-19T17:29:10.167Z,-0.70
2023-01-19T17:32:06.996Z,-0.70
2023-01-19T17:35:03.901Z,-0.70
2023-01-19T17:38:00.714Z,-0.70
2023-01-19T17:40:57.456Z,-0.70
2023-01-19T17:43:54.535Z,-0.70
2023-01-19T17:46:51.301Z,-0.70
2023-01-19T17:49:48.054Z,-0.70
2023-01-19T17:52:44.934Z,-0.60
2023-01-19T17:55:41.697Z,-0.50
2023-01-19T17:58:39.537Z,-0.60
2023-01-19T18:01:39.829Z,-0.50
2023-01-19T18:04:40.045Z,-0.60
2023-01-19T18:07:36.824Z,-0.50
2023-01-19T18:10:33.698Z,-0.60
2023-01-19T18:13:30.461Z,-0.60
2023-01-19T18:16:30.498Z,-0.60
2023-01-19T18:19:27.305Z,-0.60
2023-01-19T18:22:24.086Z,-0.60
2023-01-19T18:25:20.838Z,-0.60
2023-01-19T18:28:17.866Z,-0.60
2023-01-19T18:31:17.079Z,-0.60
2023-01-19T18:34:13.902Z,-0.60
2023-01-19T18:37:10.746Z,-0.60
2023-01-19T18:40:09.968Z,-0.60
2023-01-19T18:43:08.809Z,-0.60
2023-01-19T18:46:08.247Z,-0.60
2023-01-19T18:49:05.400Z,-0.60
2023-01-19T18:52:03.937Z,-0.50
2023-01-19T18:55:01.168Z,-0.50
2023-01-19T18:57:58.775Z,-0.60
2023-01-19T19:00:56.237Z,-0.60
2023-01-19T19:03:55.000Z,-0.50
2023-01-19T19:06:51.807Z,-0.50
2023-01-19T19:09:48.771Z,-0.50
2023-01-19T19:12:45.636Z,-0.60
2023-01-19T19:15:44.365Z,-0.60
2023-01-19T19:18:41.261Z,-0.50
2023-01-19T19:21:38.327Z,-0.50
2023-01-19T19:24:37.988Z,-0.50
2023-01-19T19:27:35.620Z,-0.50
2023-01-19T19:30:34.560Z,-0.50
2023-01-19T19:33:31.491Z,-0.50
2023-01-19T19:36:28.824Z,-0.50
2023-01-19T19:39:26.187Z,-0.50
2023-01-19T19:42:24.028Z,-0.50
2023-01-19T19:45:20.906Z,-0.50
2023-01-19T19:48:17.804Z,-0.40
2023-01-19T19:51:19.243Z,-0.40
2023-01-19T19:54:16.218Z,-0.50
2023-01-19T19:57:12.977Z,-0.50
2023-01-19T20:00:10.367Z,-0.40
2023-01-19T20:03:13.364Z,-0.40
2023-01-19T20:06:13.547Z,-0.40
2023-01-19T20:09:12.887Z,-0.40
2023-01-19T20:12:10.129Z,-0.40
2023-01-19T20:15:07.231Z,-0.40
2023-01-19T20:18:07.098Z,-0.40
2023-01-19T20:21:13.985Z,-0.50
2023-01-19T20:24:17.619Z,-0.50
2023-01-19T20:27:14.422Z,-0.50
2023-01-19T20:30:12.075Z,-0.50
2023-01-19T20:33:09.026Z,-0.50
2023-01-19T20:36:06.258Z,-0.50
2023-01-19T20:39:10.200Z,-0.50
2023-01-19T20:42:11.171Z,-0.50
2023-01-19T20:45:08.344Z,-0.50
2023-01-19T20:48:05.212Z,-0.50
2023-01-19T20:51:12.718Z,-0.50
2023-01-19T20:54:11.214Z,-0.50
2023-01-19T20:57:07.981Z,-0.40
2023-01-19T21:00:05.298Z,-0.40
2023-01-19T21:03:02.108Z,-0.40
2023-01-19T21:05:59.685Z,-0.40
2023-01-19T21:08:57.500Z,-0.40
2023-01-19T21:11:55.924Z,-0.40
2023-01-19T21:14:54.052Z,-0.40
2023-01-19T21:17:50.851Z,-0.50
2023-01-19T21:20:48.411Z,-0.50
2023-01-19T21:23:46.761Z,-0.60
2023-01-19T21:26:43.620Z,-0.50
2023-01-19T21:29:40.926Z,-0.40
2023-01-19T21:32:37.695Z,-0.30
2023-01-19T21:35:34.490Z,-0.40
2023-01-19T21:38:31.603Z,-0.40
2023-01-19T21:41:29.982Z,-0.30
2023-01-19T21:44:26.854Z,-0.40
2023-01-19T21:47:23.626Z,-0.40
2023-01-19T21:50:20.372Z,-0.40
2023-01-19T21:53:17.141Z,-0.40
2023-01-19T21:56:13.909Z,-0.50
2023-01-19T21:59:17.032Z,-0.50
2023-01-19T22:02:14.578Z,-0.40
2023-01-19T22:05:11.577Z,-0.40
2023-01-19T22:08:08.846Z,-0.40
2023-01-19T22:11:07.301Z,-0.50
2023-01-19T22:14:04.068Z,-0.40
2023-01-19T22:17:00.909Z,-0.40
2023-01-19T22:19:57.679Z,-0.50
2023-01-19T22:22:55.417Z,-0.50
2023-01-19T22:25:52.152Z,-0.50
2023-01-19T22:28:52.366Z,-0.40
2023-01-19T22:31:51.291Z,-0.50
2023-01-19T22:34:48.957Z,-0.40
2023-01-19T22:37:45.722Z,-0.30
2023-01-19T22:40:42.468Z,-0.30
2023-01-19T22:43:39.217Z,-0.30
2023-01-19T22:46:36.898Z,-0.40
2023-01-19T22:49:33.649Z,-0.40
2023-01-19T22:52:30.422Z,-0.50
2023-01-19T22:55:29.613Z,-0.40
2023-01-19T22:58:26.419Z,-0.40
2023-01-19T23:01:44.402Z,-0.40
2023-01-19T23:04:41.294Z,-0.40
2023-01-19T23:07:38.041Z,-0.40
2023-01-19T23:10:38.900Z,-0.50
2023-01-19T23:13:35.797Z,-0.50
2023-01-19T23:16:32.906Z,-0.50
2023-01-19T23:19:29.667Z,-0.50
2023-01-19T23:22:26.437Z,-0.40
2023-01-19T23:25:23.189Z,-0.50
2023-01-19T23:28:19.945Z,-0.40
2023-01-19T23:31:17.721Z,-0.30
2023-01-19T23:34:14.829Z,-0.40
2023-01-19T23:37:11.605Z,-0.40
2023-01-19T23:40:10.253Z,-0.50
2023-01-19T23:43:07.038Z,-0.50
2023-01-19T23:46:04.909Z,-0.50
2023-01-19T23:49:01.685Z,-0.40
2023-01-19T23:51:58.488Z,-0.40
2023-01-19T23:54:55.257Z,-0.40
2023-01-19T23:57:52.021Z,-0.50
